Time;durP1;ratioP1;P1;durP2;ratioP2;P2;SDS_P1;SDS_P2;PMS_P1;PMS_P2;Temp;Humidity;BMP_temperature;BMP_pressure;BME280_temperature;BME280_humidity;BME280_pressure;Samples;Min_cycle;Max_cycle;Signal;HPM_P1;HPM_P2
2022/03/24 00:01:07;;;;;;;8.23;5.45;;;;;;;;;;6157693;23;20032;-83
2022/03/24 00:03:35;;;;;;;12.48;6.80;;;;;;;;;;6128020;23;20028;-83
2022/03/24 00:06:04;;;;;;;10.13;7.38;;;;;;;;;;6102243;23;20025;-83
2022/03/24 00:08:32;;;;;;;9.73;6.55;;;;;;;;;;6158493;23;20483;-83
2022/03/24 00:11:00;;;;;;;10.93;6.20;;;;;;;;;;6162220;23;20024;-83
2022/03/24 00:13:28;;;;;;;8.65;7.40;;;;;;;;;;6182823;23;20025;-83
2022/03/24 00:15:57;;;;;;;8.27;6.53;;;;;;;;;;6161998;23;20017;-83
2022/03/24 00:18:25;;;;;;;8.65;6.40;;;;;;;;;;6178040;23;20031;-82
2022/03/24 00:20:53;;;;;;;12.40;7.68;;;;;;;;;;6151316;23;20486;-83
2022/03/24 00:23:23;;;;;;;9.88;6.03;;;;;;;;;;6126821;23;20017;-83
2022/03/24 00:25:56;;;;;;;9.65;6.25;;;;;;;;;;6126710;23;20028;-83
2022/03/24 00:28:24;;;;;;;10.95;7.88;;;;;;;;;;6127154;23;20682;-83
2022/03/24 00:30:52;;;;;;;13.82;8.18;;;;;;;;;;6126284;23;20060;-83
2022/03/24 00:33:21;;;;;;;14.45;8.98;;;;;;;;;;6126245;23;20025;-83
2022/03/24 00:35:49;;;;;;;13.40;6.88;;;;;;;;;;6187985;23;20025;-83
2022/03/24 00:38:18;;;;;;;8.63;7.43;;;;;;;;;;6127395;23;20025;-83
2022/03/24 00:40:46;;;;;;;11.57;6.85;;;;;;;;;;6102613;23;20025;-83
2022/03/24 00:43:14;;;;;;;6.40;4.43;;;;;;;;;;6127073;23;20344;-83
2022/03/24 00:45:42;;;;;;;11.10;7.80;;;;;;;;;;6151222;23;20032;-83
2022/03/24 00:48:10;;;;;;;13.15;7.40;;;;;;;;;;6136616;23;20024;-83
2022/03/24 00:50:38;;;;;;;10.50;8.82;;;;;;;;;;6127784;23;20565;-83
2022/03/24 00:53:06;;;;;;;7.65;6.38;;;;;;;;;;6157106;23;20025;-83
2022/03/24 00:55:35;;;;;;;9.30;6.55;;;;;;;;;;6161057;23;20020;-83
2022/03/24 00:58:04;;;;;;;10.50;6.47;;;;;;;;;;6152940;23;20036;-83
2022/03/24 01:00:32;;;;;;;13.48;5.60;;;;;;;;;;6151102;23;20025;-83
2022/03/24 01:03:03;;;;;;;8.13;6.15;;;;;;;;;;6162007;23;20436;-82
2022/03/24 01:05:32;;;;;;;11.23;7.07;;;;;;;;;;6149120;23;20468;-82
2022/03/24 01:08:00;;;;;;;8.73;6.35;;;;;;;;;;6158291;23;20389;-83
2022/03/24 01:10:29;;;;;;;9.73;7.15;;;;;;;;;;6150308;23;20511;-82
2022/03/24 01:12:59;;;;;;;8.52;7.57;;;;;;;;;;6150767;23;20025;-83
2022/03/24 01:15:27;;;;;;;10.45;6.53;;;;;;;;;;6127449;23;20037;-83
2022/03/24 01:17:59;;;;;;;7.53;5.50;;;;;;;;;;6126930;23;20367;-83
2022/03/24 01:20:30;;;;;;;8.77;6.55;;;;;;;;;;6185974;23;20028;-82
2022/03/24 01:22:59;;;;;;;16.52;5.80;;;;;;;;;;6161472;23;20013;-82
2022/03/24 01:25:29;;;;;;;8.48;6.35;;;;;;;;;;6181895;23;20028;-83
2022/03/24 01:27:57;;;;;;;8.75;5.93;;;;;;;;;;6160958;23;20029;-82
2022/03/24 01:30:25;;;;;;;8.50;6.97;;;;;;;;;;6153861;23;20051;-82
2022/03/24 01:32:53;;;;;;;13.38;7.35;;;;;;;;;;6159760;23;20029;-83
2022/03/24 01:35:21;;;;;;;7.63;6.32;;;;;;;;;;6164207;23;20024;-83
2022/03/24 01:37:49;;;;;;;11.73;7.68;;;;;;;;;;6127517;23;20029;-83
2022/03/24 01:40:17;;;;;;;10.30;7.95;;;;;;;;;;6189465;23;20333;-82
2022/03/24 01:42:47;;;;;;;11.00;6.65;;;;;;;;;;6164034;23;20460;-83
2022/03/24 01:45:37;;;;;;;7.85;5.53;;;;;;;;;;6153335;23;20464;-83
2022/03/24 01:49:17;;;;;;;11.75;8.93;;;;;;;;;;6125105;23;20036;-83
2022/03/24 01:52:44;;;;;;;11.20;5.50;;;;;;;;;;6146400;23;20047;-83
2022/03/24 01:56:11;;;;;;;8.18;7.38;;;;;;;;;;6171798;23;20021;-83
2022/03/24 01:59:24;;;;;;;16.52;8.73;;;;;;;;;;6111871;23;20029;-82
2022/03/24 02:01:52;;;;;;;18.33;7.60;;;;;;;;;;6155723;23;20024;-82
2022/03/24 02:04:20;;;;;;;9.57;5.93;;;;;;;;;;6162353;23;20475;-83
2022/03/24 02:06:49;;;;;;;12.57;5.22;;;;;;;;;;6128841;23;20017;-83
2022/03/24 02:09:17;;;;;;;23.35;7.93;;;;;;;;;;6127291;23;20048;-83
2022/03/24 02:11:45;;;;;;;5.97;4.30;;;;;;;;;;6128893;23;20024;-83
2022/03/24 02:14:14;;;;;;;6.68;5.28;;;;;;;;;;6180534;23;20616;-83
2022/03/24 02:16:42;;;;;;;10.27;7.15;;;;;;;;;;6128260;23;20025;-83
2022/03/24 02:19:18;;;;;;;11.18;7.15;;;;;;;;;;6153097;23;20048;-83
2022/03/24 02:21:46;;;;;;;12.27;7.55;;;;;;;;;;6155861;23;20032;-83
2022/03/24 02:24:15;;;;;;;9.10;6.72;;;;;;;;;;6188305;23;20017;-83
2022/03/24 02:27:02;;;;;;;22.70;11.07;;;;;;;;;;6128334;23;20017;-83
2022/03/24 02:30:29;;;;;;;14.80;7.82;;;;;;;;;;6129345;23;20025;-83
2022/03/24 02:34:37;;;;;;;9.18;7.05;;;;;;;;;;6133700;23;20028;-83
2022/03/24 02:37:30;;;;;;;12.18;9.20;;;;;;;;;;6184223;23;20055;-82
2022/03/24 02:40:58;;;;;;;14.60;8.00;;;;;;;;;;6127317;23;20036;-83
2022/03/24 02:44:23;;;;;;;10.65;6.85;;;;;;;;;;6189283;23;20340;-83
2022/03/24 02:47:27;;;;;;;9.98;6.32;;;;;;;;;;6146926;23;20029;-83
2022/03/24 02:49:56;;;;;;;11.43;7.30;;;;;;;;;;6127685;23;20028;-83
2022/03/24 02:52:24;;;;;;;11.93;7.00;;;;;;;;;;6103563;23;20021;-83
2022/03/24 02:54:53;;;;;;;12.13;8.05;;;;;;;;;;6128092;23;20021;-83
2022/03/24 02:57:21;;;;;;;15.07;6.93;;;;;;;;;;6156016;23;20388;-83
2022/03/24 02:59:49;;;;;;;12.65;7.03;;;;;;;;;;6162456;23;20024;-83
2022/03/24 03:02:18;;;;;;;13.35;8.27;;;;;;;;;;6153158;23;20460;-83
2022/03/24 03:04:53;;;;;;;15.15;10.90;;;;;;;;;;6160087;23;20029;-83
2022/03/24 03:07:22;;;;;;;11.13;6.45;;;;;;;;;;6162686;23;20021;-83
2022/03/24 03:09:51;;;;;;;15.00;8.55;;;;;;;;;;6152418;23;20025;-82
2022/03/24 03:12:19;;;;;;;10.45;9.02;;;;;;;;;;6161612;23;20021;-83
2022/03/24 03:14:47;;;;;;;12.27;9.52;;;;;;;;;;6189314;23;20035;-83
2022/03/24 03:17:16;;;;;;;12.07;8.98;;;;;;;;;;6127304;23;20028;-83
2022/03/24 03:19:45;;;;;;;12.55;7.22;;;;;;;;;;6162146;23;20036;-82
2022/03/24 03:22:15;;;;;;;12.85;6.72;;;;;;;;;;6179320;23;20025;-82
2022/03/24 03:24:43;;;;;;;14.95;7.63;;;;;;;;;;6127627;23;20352;-83
2022/03/24 03:27:12;;;;;;;13.48;8.82;;;;;;;;;;6103763;23;20021;-82
2022/03/24 03:29:41;;;;;;;11.73;7.22;;;;;;;;;;6151658;23;20464;-83
2022/03/24 03:32:10;;;;;;;13.55;8.07;;;;;;;;;;6103147;23;20021;-82
2022/03/24 03:34:41;;;;;;;8.57;7.15;;;;;;;;;;6127321;23;20024;-82
2022/03/24 03:37:11;;;;;;;14.25;7.70;;;;;;;;;;6157652;23;20029;-82
2022/03/24 03:39:40;;;;;;;9.10;6.30;;;;;;;;;;6128070;23;20024;-82
2022/03/24 03:42:08;;;;;;;9.18;5.72;;;;;;;;;;6127635;23;20031;-82
2022/03/24 03:44:36;;;;;;;12.23;8.23;;;;;;;;;;6159736;23;20033;-83
2022/03/24 03:47:06;;;;;;;11.38;7.68;;;;;;;;;;6162584;23;20020;-83
2022/03/24 03:49:35;;;;;;;12.77;7.25;;;;;;;;;;6126491;23;20040;-83
2022/03/24 03:52:23;;;;;;;8.40;6.30;;;;;;;;;;6151228;23;20021;-82
2022/03/24 03:54:52;;;;;;;9.95;5.30;;;;;;;;;;6136445;23;20021;-82
2022/03/24 03:57:20;;;;;;;12.00;7.65;;;;;;;;;;6156283;23;20352;-82
2022/03/24 03:59:48;;;;;;;12.00;7.80;;;;;;;;;;6152551;23;20028;-83
2022/03/24 04:02:16;;;;;;;11.93;9.55;;;;;;;;;;6151948;23;20032;-83
2022/03/24 04:04:44;;;;;;;10.75;6.68;;;;;;;;;;6185973;23;20036;-83
2022/03/24 04:07:12;;;;;;;8.02;6.85;;;;;;;;;;6153775;23;20020;-83
2022/03/24 04:09:40;;;;;;;13.40;6.53;;;;;;;;;;6155253;23;20032;-83
2022/03/24 04:12:08;;;;;;;8.13;5.85;;;;;;;;;;6161663;23;20049;-82
2022/03/24 04:14:36;;;;;;;11.13;6.97;;;;;;;;;;6162181;23;20017;-83
2022/03/24 04:17:04;;;;;;;17.60;8.15;;;;;;;;;;6158548;23;20032;-83
2022/03/24 04:19:32;;;;;;;7.43;6.40;;;;;;;;;;6189298;23;20020;-82
2022/03/24 04:22:01;;;;;;;9.02;6.90;;;;;;;;;;6127666;23;20021;-83
2022/03/24 04:24:29;;;;;;;7.47;6.53;;;;;;;;;;6151387;23;20021;-83
2022/03/24 04:26:57;;;;;;;6.97;5.00;;;;;;;;;;6151833;23;20021;-83
2022/03/24 04:29:25;;;;;;;8.65;4.80;;;;;;;;;;6182593;23;20029;-83
2022/03/24 04:31:55;;;;;;;7.15;6.47;;;;;;;;;;6152977;23;20028;-83
2022/03/24 04:34:23;;;;;;;12.35;6.70;;;;;;;;;;6152439;23;20443;-83
2022/03/24 04:36:51;;;;;;;10.20;5.60;;;;;;;;;;6151779;23;20032;-83
2022/03/24 04:39:19;;;;;;;9.05;6.40;;;;;;;;;;6162233;23;20555;-83
2022/03/24 04:41:47;;;;;;;7.53;5.43;;;;;;;;;;6151917;23;20072;-83
2022/03/24 04:44:15;;;;;;;12.00;8.45;;;;;;;;;;6160830;23;20024;-83
2022/03/24 04:46:43;;;;;;;6.90;5.38;;;;;;;;;;6178699;23;20021;-83
2022/03/24 04:49:12;;;;;;;9.23;6.15;;;;;;;;;;6157615;23;20025;-82
2022/03/24 04:51:42;;;;;;;8.80;5.20;;;;;;;;;;6127994;23;20801;-83
2022/03/24 04:54:15;;;;;;;7.88;5.75;;;;;;;;;;6103597;23;20032;-82
2022/03/24 04:56:44;;;;;;;16.23;6.22;;;;;;;;;;6127021;23;20055;-83
2022/03/24 04:59:12;;;;;;;7.22;5.68;;;;;;;;;;6127537;23;20025;-83
2022/03/24 05:01:41;;;;;;;7.22;5.72;;;;;;;;;;6103463;23;20347;-83
2022/03/24 05:04:12;;;;;;;12.15;7.25;;;;;;;;;;6161550;23;20017;-83
2022/03/24 05:06:40;;;;;;;13.70;7.35;;;;;;;;;;6129587;23;20017;-83
2022/03/24 05:09:11;;;;;;;8.38;6.43;;;;;;;;;;6153383;23;20029;-83
2022/03/24 05:11:39;;;;;;;8.30;6.20;;;;;;;;;;6190780;23;20013;-83
2022/03/24 05:14:08;;;;;;;12.10;6.50;;;;;;;;;;6182049;23;20289;-83
2022/03/24 05:16:36;;;;;;;9.77;7.35;;;;;;;;;;6104625;23;20021;-83
2022/03/24 05:19:05;;;;;;;13.18;7.38;;;;;;;;;;6153999;23;20055;-83
2022/03/24 05:21:33;;;;;;;9.57;6.03;;;;;;;;;;6183986;23;20033;-83
2022/03/24 05:24:03;;;;;;;10.80;6.63;;;;;;;;;;6140324;23;20017;-83
2022/03/24 05:26:32;;;;;;;8.35;6.95;;;;;;;;;;6179338;23;20028;-82
2022/03/24 05:29:00;;;;;;;26.17;6.65;;;;;;;;;;6159520;23;20025;-83
2022/03/24 05:31:28;;;;;;;9.18;6.70;;;;;;;;;;6154416;23;20016;-83
2022/03/24 05:33:56;;;;;;;6.75;4.90;;;;;;;;;;6152772;23;20017;-83
2022/03/24 05:36:25;;;;;;;9.98;5.90;;;;;;;;;;6162547;23;20032;-83
2022/03/24 05:38:56;;;;;;;;;;;;;;;;;;6189802;23;20024;-81
2022/03/24 05:41:26;;;;;;;8.48;5.53;;;;;;;;;;6178696;23;19920;-83
2022/03/24 05:44:03;;;;;;;8.80;6.70;;;;;;;;;;6153342;23;20032;-84
2022/03/24 05:46:48;;;;;;;9.57;6.65;;;;;;;;;;6127869;23;20029;-81
2022/03/24 05:49:19;;;;;;;8.70;6.85;;;;;;;;;;6183919;23;20353;-79
2022/03/24 05:52:02;;;;;;;6.65;5.03;;;;;;;;;;6189551;23;20013;-84
2022/03/24 05:54:34;;;;;;;9.20;6.20;;;;;;;;;;6138915;23;20029;-83
2022/03/24 05:57:11;;;;;;;10.63;5.25;;;;;;;;;;6151797;23;20021;-82
2022/03/24 05:59:39;;;;;;;8.13;5.93;;;;;;;;;;6180204;23;20437;-82
2022/03/24 06:02:13;;;;;;;11.00;6.55;;;;;;;;;;6181282;23;20456;-84
2022/03/24 06:04:49;;;;;;;8.48;5.25;;;;;;;;;;6165890;23;20370;-85
2022/03/24 06:07:17;;;;;;;8.10;5.32;;;;;;;;;;6148747;23;20017;-84
2022/03/24 06:09:48;;;;;;;8.75;6.30;;;;;;;;;;6152861;23;20471;-80
2022/03/24 06:12:16;;;;;;;8.85;7.43;;;;;;;;;;6188744;23;20017;-80
2022/03/24 06:14:44;;;;;;;8.00;6.25;;;;;;;;;;6189699;23;20850;-80
2022/03/24 06:17:11;;;;;;;8.23;5.22;;;;;;;;;;6183787;23;20029;-80
2022/03/24 06:19:39;;;;;;;9.27;5.65;;;;;;;;;;6189040;23;20024;-80
2022/03/24 06:22:08;;;;;;;10.18;6.85;;;;;;;;;;6180611;23;20021;-80
2022/03/24 06:24:36;;;;;;;13.75;7.22;;;;;;;;;;6186074;23;20052;-80
2022/03/24 06:27:04;;;;;;;6.97;5.78;;;;;;;;;;6189067;23;20020;-79
2022/03/24 06:29:32;;;;;;;7.55;6.85;;;;;;;;;;6182144;23;20021;-79
2022/03/24 06:32:00;;;;;;;5.97;5.45;;;;;;;;;;6189331;23;20021;-79
2022/03/24 06:34:28;;;;;;;6.57;4.97;;;;;;;;;;6177790;23;20110;-79
2022/03/24 06:36:56;;;;;;;7.88;4.22;;;;;;;;;;6127767;23;20029;-79
2022/03/24 06:39:24;;;;;;;13.05;6.95;;;;;;;;;;6188497;23;20449;-80
2022/03/24 06:41:53;;;;;;;10.43;5.45;;;;;;;;;;6180754;23;20032;-79
2022/03/24 06:44:21;;;;;;;10.20;5.47;;;;;;;;;;6187333;23;20466;-79
2022/03/24 06:46:49;;;;;;;7.68;5.45;;;;;;;;;;6188750;23;20040;-79
2022/03/24 06:49:17;;;;;;;9.07;6.88;;;;;;;;;;6182933;23;20460;-79
2022/03/24 06:51:45;;;;;;;11.45;6.85;;;;;;;;;;6189235;23;20017;-79
2022/03/24 06:54:14;;;;;;;10.50;5.80;;;;;;;;;;6178910;23;20032;-80
2022/03/24 06:56:42;;;;;;;10.27;5.53;;;;;;;;;;6185175;23;20028;-80
2022/03/24 06:59:10;;;;;;;9.27;5.60;;;;;;;;;;6146688;23;20029;-78
2022/03/24 07:01:40;;;;;;;6.88;6.13;;;;;;;;;;6150470;23;20068;-78
2022/03/24 07:04:08;;;;;;;9.25;4.68;;;;;;;;;;6156076;23;20018;-78
2022/03/24 07:06:38;;;;;;;9.30;5.15;;;;;;;;;;6147808;23;20060;-78
2022/03/24 07:09:05;;;;;;;7.97;5.82;;;;;;;;;;6151120;23;20025;-78
2022/03/24 07:11:33;;;;;;;6.43;5.35;;;;;;;;;;6158701;23;20017;-80
2022/03/24 07:14:01;;;;;;;7.88;6.72;;;;;;;;;;6149383;23;20021;-80
2022/03/24 07:16:29;;;;;;;7.55;4.22;;;;;;;;;;6156415;23;20449;-80
2022/03/24 07:19:06;;;;;;;7.93;5.63;;;;;;;;;;6158479;23;20013;-81
2022/03/24 07:21:34;;;;;;;6.38;4.30;;;;;;;;;;6151962;23;20357;-80
2022/03/24 07:24:02;;;;;;;4.97;4.10;;;;;;;;;;6158461;23;20017;-81
2022/03/24 07:26:30;;;;;;;4.75;4.28;;;;;;;;;;6147847;23;20030;-81
2022/03/24 07:28:58;;;;;;;7.55;5.07;;;;;;;;;;6153989;23;20032;-81
2022/03/24 07:31:27;;;;;;;9.05;5.90;;;;;;;;;;6158531;23;20021;-80
2022/03/24 07:33:58;;;;;;;5.60;4.85;;;;;;;;;;6150105;23;20025;-80
2022/03/24 07:36:27;;;;;;;5.38;4.22;;;;;;;;;;6156438;23;22376;-81
2022/03/24 07:38:55;;;;;;;6.32;3.83;;;;;;;;;;6158683;23;20025;-80
2022/03/24 07:41:23;;;;;;;6.43;4.68;;;;;;;;;;6153165;23;20044;-80
2022/03/24 07:43:52;;;;;;;6.57;4.47;;;;;;;;;;6158814;23;20017;-82
2022/03/24 07:46:20;;;;;;;6.47;5.53;;;;;;;;;;6122983;23;20041;-82
2022/03/24 07:48:49;;;;;;;14.57;6.15;;;;;;;;;;6153112;23;20033;-82
2022/03/24 07:51:19;;;;;;;5.25;4.57;;;;;;;;;;6157203;23;20013;-82
2022/03/24 07:53:59;;;;;;;12.80;4.70;;;;;;;;;;6149208;23;20032;-82
2022/03/24 07:56:28;;;;;;;4.75;3.85;;;;;;;;;;6146174;23;20025;-82
2022/03/24 07:58:57;;;;;;;6.30;4.05;;;;;;;;;;6150151;23;20017;-83
2022/03/24 08:01:32;;;;;;;7.45;4.60;;;;;;;;;;6151183;23;20025;-82
2022/03/24 08:04:02;;;;;;;6.75;6.05;;;;;;;;;;6158050;23;20688;-82
2022/03/24 08:06:31;;;;;;;6.32;4.53;;;;;;;;;;6145762;23;20029;-82
2022/03/24 08:09:00;;;;;;;7.25;6.38;;;;;;;;;;6145399;23;20075;-83
2022/03/24 08:11:31;;;;;;;4.22;3.67;;;;;;;;;;6157620;23;20013;-80
2022/03/24 08:14:02;;;;;;;12.02;6.18;;;;;;;;;;6145954;23;20032;-80
2022/03/24 08:16:33;;;;;;;5.45;4.20;;;;;;;;;;6147495;23;20311;-79
2022/03/24 08:19:06;;;;;;;10.15;5.57;;;;;;;;;;6147937;23;20025;-80
2022/03/24 08:21:37;;;;;;;7.22;6.43;;;;;;;;;;6150033;23;20457;-80
2022/03/24 08:24:10;;;;;;;5.72;5.18;;;;;;;;;;6120393;23;20017;-82
2022/03/24 08:26:40;;;;;;;;;;;;;;;;;;6158582;23;20013;-82
2022/03/24 08:29:09;;;;;;;7.10;4.90;;;;;;;;;;6153545;23;19924;-82
2022/03/24 08:31:39;;;;;;;9.63;5.07;;;;;;;;;;6158530;23;20024;-82
2022/03/24 08:34:09;;;;;;;9.05;5.38;;;;;;;;;;6145980;23;20017;-82
2022/03/24 08:36:40;;;;;;;;;;;;;;;;;;6148046;23;20025;-82
2022/03/24 08:39:10;;;;;;;6.55;5.45;;;;;;;;;;6145497;23;19920;-82
2022/03/24 08:41:39;;;;;;;12.32;4.88;;;;;;;;;;6151475;23;20033;-82
2022/03/24 08:44:11;;;;;;;6.70;5.45;;;;;;;;;;6156259;23;20029;-82
2022/03/24 08:46:41;;;;;;;10.77;6.15;;;;;;;;;;6156763;23;20017;-82
2022/03/24 08:49:11;;;;;;;6.70;4.80;;;;;;;;;;6152469;23;20018;-82
2022/03/24 08:51:41;;;;;;;9.50;6.47;;;;;;;;;;6158167;23;20764;-82
2022/03/24 08:54:09;;;;;;;8.07;6.05;;;;;;;;;;6149017;23;20033;-82
2022/03/24 08:56:41;;;;;;;8.05;4.88;;;;;;;;;;6145537;23;20021;-82
2022/03/24 08:59:09;;;;;;;8.27;5.53;;;;;;;;;;6172445;23;20051;-82
2022/03/24 09:01:41;;;;;;;7.18;5.25;;;;;;;;;;6154239;23;20457;-81
2022/03/24 09:04:14;;;;;;;6.78;6.03;;;;;;;;;;6176994;23;20024;-81
2022/03/24 09:06:44;;;;;;;7.55;5.93;;;;;;;;;;6188274;23;20013;-81
2022/03/24 09:09:12;;;;;;;5.93;5.28;;;;;;;;;;6174402;23;20616;-81
2022/03/24 09:11:41;;;;;;;9.85;6.18;;;;;;;;;;6186621;23;20017;-81
2022/03/24 09:14:10;;;;;;;9.48;6.75;;;;;;;;;;6178201;23;20036;-81
2022/03/24 09:16:45;;;;;;;7.60;6.45;;;;;;;;;;6177675;23;20031;-81
2022/03/24 09:19:16;;;;;;;7.30;6.35;;;;;;;;;;6186964;23;20017;-81
2022/03/24 09:21:45;;;;;;;7.32;6.63;;;;;;;;;;6180565;23;20032;-81
2022/03/24 09:24:13;;;;;;;7.60;6.90;;;;;;;;;;6182564;23;20020;-81
2022/03/24 09:26:42;;;;;;;19.17;7.85;;;;;;;;;;6187402;23;20013;-81
2022/03/24 09:29:11;;;;;;;8.18;7.38;;;;;;;;;;6182561;23;20021;-81
2022/03/24 09:31:39;;;;;;;5.93;5.32;;;;;;;;;;6187943;23;20012;-81
2022/03/24 09:34:09;;;;;;;7.65;6.78;;;;;;;;;;6178661;23;20021;-81
2022/03/24 09:36:40;;;;;;;8.95;6.57;;;;;;;;;;6185091;23;20033;-81
2022/03/24 09:39:08;;;;;;;9.52;7.25;;;;;;;;;;6186963;23;20017;-81
2022/03/24 09:41:37;;;;;;;10.35;6.45;;;;;;;;;;6180971;23;20029;-81
2022/03/24 09:44:05;;;;;;;10.60;7.07;;;;;;;;;;6188036;23;20017;-80
2022/03/24 09:46:33;;;;;;;8.95;6.70;;;;;;;;;;6150408;23;20021;-80
2022/03/24 09:49:01;;;;;;;7.38;6.55;;;;;;;;;;6182318;23;20447;-80
2022/03/24 09:51:29;;;;;;;12.75;7.25;;;;;;;;;;6189188;23;20013;-81
2022/03/24 09:53:57;;;;;;;12.43;7.38;;;;;;;;;;6180992;23;20029;-81
2022/03/24 09:56:25;;;;;;;9.05;7.22;;;;;;;;;;6178494;23;20021;-81
2022/03/24 09:58:53;;;;;;;8.35;7.15;;;;;;;;;;6183236;23;20017;-80
2022/03/24 10:01:22;;;;;;;11.95;7.60;;;;;;;;;;6183842;23;20077;-80
2022/03/24 10:04:05;;;;;;;8.65;7.03;;;;;;;;;;6189155;23;20013;-80
2022/03/24 10:06:33;;;;;;;7.65;6.50;;;;;;;;;;6178321;23;20021;-81
2022/03/24 10:09:01;;;;;;;10.82;7.13;;;;;;;;;;6157994;23;20076;-81
2022/03/24 10:11:31;;;;;;;8.80;6.18;;;;;;;;;;6189097;23;20323;-81
2022/03/24 10:14:02;;;;;;;12.13;8.73;;;;;;;;;;6178432;23;20036;-81
2022/03/24 10:16:33;;;;;;;7.95;6.60;;;;;;;;;;6186694;23;20337;-81
2022/03/24 10:19:02;;;;;;;9.40;7.45;;;;;;;;;;6188456;23;20020;-82
2022/03/24 10:21:38;;;;;;;9.23;8.20;;;;;;;;;;6131245;23;20469;-82
2022/03/24 10:24:08;;;;;;;6.50;5.90;;;;;;;;;;6152655;23;20025;-82
2022/03/24 10:26:45;;;;;;;6.53;5.03;;;;;;;;;;6177655;23;20029;-82
2022/03/24 10:29:31;;;;;;;9.13;6.97;;;;;;;;;;6183418;23;20029;-82
2022/03/24 10:32:01;;;;;;;7.25;6.53;;;;;;;;;;6189016;23;20020;-82
2022/03/24 10:34:33;;;;;;;7.88;5.95;;;;;;;;;;6151830;23;20029;-82
2022/03/24 10:37:09;;;;;;;9.23;7.70;;;;;;;;;;6158538;23;20032;-82
2022/03/24 10:39:38;;;;;;;8.85;6.30;;;;;;;;;;6187825;23;20040;-82
2022/03/24 10:42:14;;;;;;;7.72;6.05;;;;;;;;;;6180192;23;20364;-82
2022/03/24 10:45:01;;;;;;;11.05;6.15;;;;;;;;;;6159579;23;20039;-82
2022/03/24 10:47:37;;;;;;;12.30;8.02;;;;;;;;;;6188354;23;20013;-82
2022/03/24 10:50:19;;;;;;;11.13;7.50;;;;;;;;;;6153435;23;20029;-83
2022/03/24 10:52:47;;;;;;;7.03;4.82;;;;;;;;;;6184609;23;20368;-82
2022/03/24 10:55:22;;;;;;;8.98;6.10;;;;;;;;;;6161713;23;20013;-82
2022/03/24 10:57:50;;;;;;;7.20;6.50;;;;;;;;;;6180679;23;20040;-82
2022/03/24 11:00:20;;;;;;;7.20;6.43;;;;;;;;;;6160963;23;20024;-82
2022/03/24 11:02:48;;;;;;;8.27;6.10;;;;;;;;;;6189082;23;20856;-82
2022/03/24 11:05:16;;;;;;;9.50;6.95;;;;;;;;;;6151652;23;20044;-83
2022/03/24 11:07:51;;;;;;;7.15;5.53;;;;;;;;;;6126849;23;20043;-82
2022/03/24 11:10:20;;;;;;;5.63;4.80;;;;;;;;;;6178743;23;20029;-82
2022/03/24 11:12:49;;;;;;;9.10;7.47;;;;;;;;;;6158214;23;20021;-82
2022/03/24 11:15:17;;;;;;;8.88;6.05;;;;;;;;;;6188421;23;20479;-82
2022/03/24 11:17:46;;;;;;;10.82;6.43;;;;;;;;;;6180511;23;20036;-82
2022/03/24 11:20:14;;;;;;;11.50;7.53;;;;;;;;;;6187707;23;20024;-82
2022/03/24 11:22:43;;;;;;;7.22;6.53;;;;;;;;;;6188422;23;20621;-82
2022/03/24 11:25:12;;;;;;;11.70;7.03;;;;;;;;;;6151036;23;20025;-81
2022/03/24 11:27:40;;;;;;;8.65;6.38;;;;;;;;;;6187932;23;20483;-81
2022/03/24 11:30:09;;;;;;;10.40;7.22;;;;;;;;;;6153340;23;20025;-82
2022/03/24 11:32:38;;;;;;;10.23;8.00;;;;;;;;;;6185138;23;20025;-81
2022/03/24 11:35:07;;;;;;;13.20;7.80;;;;;;;;;;6151879;23;20338;-82
2022/03/24 11:37:40;;;;;;;8.10;7.28;;;;;;;;;;6180187;23;20032;-82
2022/03/24 11:40:09;;;;;;;13.60;6.45;;;;;;;;;;6187609;23;20017;-81
2022/03/24 11:42:44;;;;;;;6.93;6.13;;;;;;;;;;6161837;23;20393;-82
2022/03/24 11:45:17;;;;;;;10.02;6.95;;;;;;;;;;6182981;23;20028;-82
2022/03/24 11:47:56;;;;;;;9.82;5.80;;;;;;;;;;6160568;23;20017;-81
2022/03/24 11:50:45;;;;;;;7.38;6.65;;;;;;;;;;6177845;23;20350;-82
2022/03/24 11:53:19;;;;;;;8.95;6.30;;;;;;;;;;6150677;23;20029;-81
2022/03/24 11:56:04;;;;;;;7.50;6.05;;;;;;;;;;6187772;23;20017;-81
2022/03/24 11:58:44;;;;;;;7.65;4.95;;;;;;;;;;6175493;23;20035;-80
2022/03/24 12:01:22;;;;;;;9.23;5.20;;;;;;;;;;6150663;23;20025;-80
2022/03/24 12:04:05;;;;;;;7.20;5.50;;;;;;;;;;6184031;23;20017;-82
2022/03/24 12:06:46;;;;;;;11.32;7.70;;;;;;;;;;6176854;23;20500;-79
2022/03/24 12:09:17;;;;;;;9.85;7.30;;;;;;;;;;6180490;23;20029;-81
2022/03/24 12:11:45;;;;;;;;;;;;;;;;;;6127021;23;20034;-81
2022/03/24 12:14:16;;;;;;;10.88;8.13;;;;;;;;;;6178722;23;19920;-82
2022/03/24 12:16:46;;;;;;;7.55;6.45;;;;;;;;;;6184753;23;20365;-81
2022/03/24 12:19:35;;;;;;;12.38;6.63;;;;;;;;;;6187634;23;20043;-78
2022/03/24 12:22:22;;;;;;;6.30;5.70;;;;;;;;;;6152694;23;20040;-79
2022/03/24 12:24:50;;;;;;;25.00;9.02;;;;;;;;;;6150411;23;20025;-78
2022/03/24 12:27:18;;;;;;;9.63;8.57;;;;;;;;;;6148805;23;20024;-78
2022/03/24 12:30:05;;;;;;;6.75;5.05;;;;;;;;;;6179568;23;20028;-79
2022/03/24 12:32:34;;;;;;;9.63;4.95;;;;;;;;;;6159163;23;20032;-78
2022/03/24 12:35:03;;;;;;;9.48;8.32;;;;;;;;;;6188094;23;20433;-78
2022/03/24 12:37:31;;;;;;;17.27;6.22;;;;;;;;;;6180545;23;20024;-79
2022/03/24 12:40:11;;;;;;;8.27;6.00;;;;;;;;;;6161519;23;20013;-79
2022/03/24 12:42:40;;;;;;;14.00;6.78;;;;;;;;;;6176519;23;20051;-79
2022/03/24 12:45:10;;;;;;;10.48;7.40;;;;;;;;;;6183090;23;20329;-78
2022/03/24 12:47:47;;;;;;;8.30;5.75;;;;;;;;;;6187729;23;20024;-78
2022/03/24 12:50:21;;;;;;;6.60;5.78;;;;;;;;;;6151803;23;20025;-78
2022/03/24 12:52:54;;;;;;;10.50;6.40;;;;;;;;;;6182506;23;20021;-79
2022/03/24 12:55:26;;;;;;;9.45;6.53;;;;;;;;;;6187277;23;20013;-81
2022/03/24 12:57:58;;;;;;;11.07;5.97;;;;;;;;;;6179375;23;20036;-82
2022/03/24 13:00:40;;;;;;;10.95;7.65;;;;;;;;;;6185515;23;20040;-84
2022/03/24 13:03:10;;;;;;;16.13;9.63;;;;;;;;;;6151553;23;20438;-88
2022/03/24 13:05:39;;;;;;;9.38;7.35;;;;;;;;;;6180521;23;20029;-83
2022/03/24 13:08:09;;;;;;;12.90;7.72;;;;;;;;;;6185514;23;20017;-79
2022/03/24 13:10:38;;;;;;;8.88;6.03;;;;;;;;;;6160519;23;20017;-77
2022/03/24 13:13:07;;;;;;;10.07;7.32;;;;;;;;;;6182570;23;20029;-77
2022/03/24 13:15:37;;;;;;;9.88;6.82;;;;;;;;;;6186903;23;20013;-77
2022/03/24 13:18:07;;;;;;;12.07;6.97;;;;;;;;;;6149001;23;20033;-78
2022/03/24 13:20:42;;;;;;;14.43;9.18;;;;;;;;;;6150013;23;20253;-78
2022/03/24 13:23:11;;;;;;;9.07;7.03;;;;;;;;;;6186183;23;20017;-77
2022/03/24 13:25:41;;;;;;;12.02;7.55;;;;;;;;;;6154579;23;20032;-78
2022/03/24 13:28:09;;;;;;;9.05;5.90;;;;;;;;;;6187122;23;20013;-79
2022/03/24 13:30:38;;;;;;;7.78;7.03;;;;;;;;;;6189185;23;20721;-79
2022/03/24 13:33:07;;;;;;;8.90;7.07;;;;;;;;;;6184417;23;20052;-80
2022/03/24 13:35:37;;;;;;;17.42;8.73;;;;;;;;;;6179614;23;20036;-79
2022/03/24 13:38:09;;;;;;;11.00;6.73;;;;;;;;;;6179097;23;20040;-80
2022/03/24 13:40:43;;;;;;;9.20;8.38;;;;;;;;;;6185574;23;20029;-79
2022/03/24 13:43:21;;;;;;;11.77;9.45;;;;;;;;;;6153983;23;20021;-79
2022/03/24 13:45:50;;;;;;;7.63;6.25;;;;;;;;;;6180192;23;20033;-79
2022/03/24 13:48:27;;;;;;;9.07;6.93;;;;;;;;;;6185676;23;20017;-79
2022/03/24 13:51:05;;;;;;;12.00;6.68;;;;;;;;;;6188730;23;20013;-79
2022/03/24 13:53:33;;;;;;;8.55;4.63;;;;;;;;;;6150443;23;20025;-79
2022/03/24 13:56:04;;;;;;;8.93;7.03;;;;;;;;;;6188671;23;20020;-79
2022/03/24 13:58:32;;;;;;;12.35;7.82;;;;;;;;;;6177723;23;20036;-78
2022/03/24 14:01:01;;;;;;;8.10;6.90;;;;;;;;;;6185216;23;20534;-78
2022/03/24 14:03:30;;;;;;;9.07;6.53;;;;;;;;;;6159550;23;20017;-79
2022/03/24 14:06:01;;;;;;;6.93;6.22;;;;;;;;;;6179670;23;20040;-80
2022/03/24 14:08:29;;;;;;;;;;;;;;;;;;6182786;23;20348;-80
2022/03/24 14:11:00;;;;;;;7.95;6.18;;;;;;;;;;6188565;23;20233;-79
2022/03/24 14:13:28;;;;;;;;;;;;;;;;;;6153672;23;20033;-79
2022/03/24 14:16:13;;;;;;;11.68;8.45;;;;;;;;;;6151417;23;19946;-80
2022/03/24 14:18:42;;;;;;;10.38;6.80;;;;;;;;;;6106628;23;20033;-77
2022/03/24 14:21:16;;;;;;;10.25;7.38;;;;;;;;;;6179814;23;20536;-77
2022/03/24 14:23:44;;;;;;;8.50;7.70;;;;;;;;;;6186912;23;20017;-77
2022/03/24 14:26:12;;;;;;;13.20;6.35;;;;;;;;;;6177786;23;20681;-79
2022/03/24 14:28:42;;;;;;;13.50;6.15;;;;;;;;;;6184297;23;20025;-76
2022/03/24 14:31:16;;;;;;;6.80;5.97;;;;;;;;;;6187666;23;20448;-77
2022/03/24 14:33:46;;;;;;;8.18;6.22;;;;;;;;;;6154484;23;20032;-77
2022/03/24 14:36:14;;;;;;;7.63;6.85;;;;;;;;;;6186425;23;20024;-76
2022/03/24 14:39:14;;;;;;;6.15;4.32;;;;;;;;;;6186325;23;20124;-76
2022/03/24 14:41:44;;;;;;;11.67;7.47;;;;;;;;;;6098128;23;20025;-75
2022/03/24 14:44:12;;;;;;;6.80;5.70;;;;;;;;;;6184727;23;20527;-76
2022/03/24 14:46:41;;;;;;;5.80;4.65;;;;;;;;;;6188834;23;20697;-75
2022/03/24 14:49:11;;;;;;;9.38;6.13;;;;;;;;;;6180249;23;20029;-75
2022/03/24 14:51:40;;;;;;;7.35;4.75;;;;;;;;;;6148813;23;20021;-76
2022/03/24 14:54:10;;;;;;;13.27;5.72;;;;;;;;;;6176973;23;20032;-76
2022/03/24 14:56:39;;;;;;;7.85;5.00;;;;;;;;;;6184230;23;20021;-76
2022/03/24 14:59:08;;;;;;;8.48;5.40;;;;;;;;;;6179185;23;20456;-77
2022/03/24 15:01:36;;;;;;;6.03;5.38;;;;;;;;;;6180524;23;20047;-79
2022/03/24 15:04:05;;;;;;;8.38;5.88;;;;;;;;;;6187928;23;20013;-84
2022/03/24 15:06:33;;;;;;;7.35;5.15;;;;;;;;;;6152450;23;20375;-85
2022/03/24 15:09:01;;;;;;;9.35;5.63;;;;;;;;;;6183961;23;20025;-86